Portada
METAR-TAF:

METAR-TAF

Aeroports :

Zahedan, Iran

latitud: 29-28N, longitud: 060-53E, altitud: 1370 m

Observació

L'informe es va fer fa 33 minuts, a les 07:00 UTC
Vent 4 kt del Est/Nord-Est
Temperatura 31°C
Humitat 7%
Pressió 1015 hPa
Visibilitat 10 km o més
sense núvols per sota de 1500 mi sense presència de cumulonimbus.

METAR: OIZH 220700Z 06004KT CAVOK 31/M08 Q1015 A2998 NOSIG

Hora: 12:03 (07:33 UTC)

Pronòstic

L'informe es va fer fa 2 hores i 3 minuts, a les 05:30 UTC
Pronòstic vàlid del 22 a les 06 UTC al 23 a les 12 UTC
Vent 12 kt del Oest/Nord-Oest
Visibilitat: 8000 m
Temporalment
l' 22 a les 06 UTC al 22 a les 15 UTC
Vent 22 kt del Nord
Visibilitat: 4000 m
sorra
Temporalment
l' 23 a les 06 UTC al 23 a les 12 UTC
Vent 20 kt del Nord
Visibilitat: 5000 m
sorra

TAF: OIZH 220530Z 2206/2312 29012KT 8000 NSC TEMPO 2206/2215 35022KT 4000 SA TEMPO 2306/2312 01020KT 5000 SA

Observacions i pronòstics meteorològics de més de 4000 aeroports (METAR i TAF).

Les estacions disponibles són els punts grocs i vermells al mapa.

Posi el ratolí al punt desitjat per veure el nom de l'estació.

Feu clic per veure les observacions i els pronòstics meteorològics.

Per canviar el mapa: feu clic els botons verds amb una creu de color negre per apropar; al botó verd amb un guió per allunyar la imatge; o en les fletxes verdes per a mapes adjacents.


METAR-TAF: